Google Maps JavaScript API Example
Pilot Flight Report # 92962 Submitted by : AST775 on 2019-05-12
Date: 2019-05-12Aircraft: Howard 500
Flight No.: Not AvailableDistance (Nm): 455.12
Departure: GQPP - NouadhibouDestination: GCXO - Los Rodeos
 TimeFuelWeightSpeeds  
Out (Taxi)0647Z4392 lbs29370 lbs Flight RulesVFR
Off (Takeoff)0648Z 29357 lbs116 ktsFlight Level12500
On (Landing)0817Z 25466 lbs100 ktsVSTD-131 ft/min
In (Ramp)0817Z486 lbs25466 lbs ZFW24981 lbs
Flight1.50  -  1:293888 lbs  Pax0
Block1.50  -  1:303906 lbs  Cargo0
Departure WeatherGQPP 250646Z 01713KT 5SM SKC 20/14 A30
Destination WeatherLEGT 250817Z 28606KT 48SM SCT036 BKN042 13/12 A3021
Flight Commentsmay leg 10 GQPP - GCXO